Time,TemperatureF,DewpointF,PressureIn,WindDirection,WindDirectionDegrees,WindSpeedMPH,WindSpeedGustMPH,Humidity,HourlyPrecipIn,Conditions,Clouds,dailyrainin,SoftwareType,DateUTC
2013-08-13 00:00:00,68.6,67.4,29.89,West,281,0.0,0.0,96,0.00,,,0.51,Custom v0.1,2013-08-13 05:00:00,
2013-08-13 00:05:00,68.4,67.2,29.88,West,281,0.0,0.0,96,0.00,,,0.00,Custom v0.1,2013-08-13 05:05:00,
2013-08-13 00:10:00,68.4,67.2,29.88,West,281,0.0,0.0,96,0.00,,,0.00,Custom v0.1,2013-08-13 05:10:00,
2013-08-13 00:20:00,68.1,66.9,29.88,West,281,0.0,0.0,96,0.00,,,0.00,Custom v0.1,2013-08-13 05:20:00,
2013-08-13 00:25:00,68.1,66.9,29.88,West,281,0.0,0.0,96,0.00,,,0.00,Custom v0.1,2013-08-13 05:25:00,
2013-08-13 00:30:00,67.9,66.7,29.88,West,281,0.0,0.0,96,0.00,,,0.00,Custom v0.1,2013-08-13 05:30:00,
2013-08-13 00:35:00,67.8,66.9,29.88,West,281,0.0,0.0,97,0.00,,,0.00,Custom v0.1,2013-08-13 05:35:00,
2013-08-13 00:40:00,67.8,66.9,29.88,West,281,0.0,0.0,97,0.00,,,0.00,Custom v0.1,2013-08-13 05:40:00,
2013-08-13 00:45:00,67.8,66.9,29.88,West,281,0.0,0.0,97,0.00,,,0.00,Custom v0.1,2013-08-13 05:45:00,
2013-08-13 00:55:00,67.6,66.7,29.88,West,281,0.0,0.0,97,0.00,,,0.00,Custom v0.1,2013-08-13 05:55:00,
2013-08-13 01:00:00,67.6,66.7,29.88,West,281,0.0,0.0,97,0.00,,,0.00,Custom v0.1,2013-08-13 06:00:00,
2013-08-13 01:05:00,67.6,66.7,29.88,West,281,0.0,0.0,97,0.00,,,0.00,Custom v0.1,2013-08-13 06:05:00,
2013-08-13 01:10:00,67.4,66.5,29.88,West,281,0.0,0.0,97,0.00,,,0.00,Custom v0.1,2013-08-13 06:10:00,
2013-08-13 01:15:00,67.1,66.2,29.88,West,281,0.0,0.0,97,0.00,,,0.00,Custom v0.1,2013-08-13 06:15:00,
2013-08-13 01:20:00,67.1,66.2,29.87,West,281,0.0,0.0,97,0.00,,,0.00,Custom v0.1,2013-08-13 06:20:00,
2013-08-13 01:30:00,67.3,66.4,29.87,West,281,0.0,0.0,97,0.00,,,0.00,Custom v0.1,2013-08-13 06:30:00,
2013-08-13 01:35:00,67.1,66.2,29.87,West,281,0.0,0.0,97,0.00,,,0.00,Custom v0.1,2013-08-13 06:35:00,
2013-08-13 01:40:00,67.1,66.2,29.87,West,281,0.0,0.0,97,0.00,,,0.00,Custom v0.1,2013-08-13 06:40:00,
2013-08-13 01:45:00,67.1,66.2,29.87,West,281,0.0,0.0,97,0.00,,,0.00,Custom v0.1,2013-08-13 06:45:00,
2013-08-13 01:50:00,67.3,66.4,29.87,West,281,0.0,0.0,97,0.00,,,0.00,Custom v0.1,2013-08-13 06:50:00,
2013-08-13 02:00:00,67.4,66.5,29.87,West,281,0.0,0.0,97,0.00,,,0.00,Custom v0.1,2013-08-13 07:00:00,
2013-08-13 02:05:00,67.3,66.4,29.87,West,281,0.0,0.0,97,0.00,,,0.00,Custom v0.1,2013-08-13 07:05:00,
2013-08-13 02:15:00,67.3,66.7,29.87,West,281,0.0,0.0,98,0.00,,,0.00,Custom v0.1,2013-08-13 07:15:00,
2013-08-13 02:20:00,67.1,66.2,29.87,West,281,0.0,0.0,97,0.00,,,0.00,Custom v0.1,2013-08-13 07:20:00,
2013-08-13 02:25:00,66.8,65.9,29.87,West,281,0.0,0.0,97,0.00,,,0.00,Custom v0.1,2013-08-13 07:25:00,
2013-08-13 02:30:00,66.4,65.5,29.87,West,281,0.0,0.0,97,0.00,,,0.00,Custom v0.1,2013-08-13 07:30:00,
2013-08-13 02:40:00,66.3,65.4,29.87,West,281,0.0,0.0,97,0.00,,,0.00,Custom v0.1,2013-08-13 07:40:00,
2013-08-13 02:45:00,66.3,65.7,29.87,West,281,0.0,0.0,98,0.00,,,0.00,Custom v0.1,2013-08-13 07:45:00,
2013-08-13 02:50:00,66.1,65.2,29.87,West,281,0.0,0.0,97,0.00,,,0.00,Custom v0.1,2013-08-13 07:50:00,
2013-08-13 02:55:00,66.1,65.5,29.87,West,281,0.0,0.0,98,0.00,,,0.00,Custom v0.1,2013-08-13 07:55:00,
2013-08-13 03:00:00,66.1,65.5,29.87,West,281,0.0,0.0,98,0.00,,,0.00,Custom v0.1,2013-08-13 08:00:00,
2013-08-13 03:05:00,66.3,65.7,29.87,West,281,0.0,0.0,98,0.00,,,0.00,Custom v0.1,2013-08-13 08:05:00,
2013-08-13 03:10:00,66.4,65.8,29.87,West,281,0.0,0.0,98,0.00,,,0.00,Custom v0.1,2013-08-13 08:10:00,
2013-08-13 03:15:00,66.4,65.8,29.87,West,281,0.0,0.0,98,0.00,,,0.00,Custom v0.1,2013-08-13 08:15:00,
2013-08-13 03:20:00,66.4,65.8,29.87,West,281,0.0,0.0,98,0.00,,,0.00,Custom v0.1,2013-08-13 08:20:00,
2013-08-13 03:25:00,66.4,65.8,29.87,West,281,0.0,0.0,98,0.00,,,0.00,Custom v0.1,2013-08-13 08:25:00,
2013-08-13 03:30:00,66.6,66.0,29.87,West,281,0.0,0.0,98,0.00,,,0.00,Custom v0.1,2013-08-13 08:30:00,
2013-08-13 03:35:00,66.8,66.2,29.88,West,281,0.0,0.0,98,0.00,,,0.00,Custom v0.1,2013-08-13 08:35:00,
2013-08-13 03:40:00,66.8,66.2,29.88,West,281,0.0,0.0,98,0.00,,,0.00,Custom v0.1,2013-08-13 08:40:00,
2013-08-13 03:45:00,66.8,66.2,29.88,West,281,0.0,0.0,98,0.00,,,0.00,Custom v0.1,2013-08-13 08:45:00,
2013-08-13 03:50:00,66.6,66.0,29.88,West,281,0.0,0.0,98,0.00,,,0.00,Custom v0.1,2013-08-13 08:50:00,
2013-08-13 03:55:00,66.4,65.8,29.88,West,281,0.0,0.0,98,0.00,,,0.00,Custom v0.1,2013-08-13 08:55:00,
2013-08-13 04:00:00,66.4,65.8,29.88,West,281,0.0,0.0,98,0.00,,,0.00,Custom v0.1,2013-08-13 09:00:00,
2013-08-13 04:05:00,66.6,66.0,29.89,West,281,0.0,0.0,98,0.00,,,0.00,Custom v0.1,2013-08-13 09:05:00,
2013-08-13 04:10:00,66.6,66.0,29.89,West,281,0.0,0.0,98,0.00,,,0.00,Custom v0.1,2013-08-13 09:10:00,
2013-08-13 04:15:00,66.4,65.8,29.89,West,281,0.0,0.0,98,0.00,,,0.00,Custom v0.1,2013-08-13 09:15:00,
2013-08-13 04:20:00,66.3,65.7,29.88,West,281,0.0,0.0,98,0.00,,,0.00,Custom v0.1,2013-08-13 09:20:00,
2013-08-13 04:25:00,66.3,65.7,29.88,West,281,0.0,0.0,98,0.00,,,0.00,Custom v0.1,2013-08-13 09:25:00,
2013-08-13 04:30:00,66.1,65.5,29.88,West,281,0.0,0.0,98,0.00,,,0.00,Custom v0.1,2013-08-13 09:30:00,
2013-08-13 04:35:00,66.1,65.5,29.88,West,281,0.0,0.0,98,0.00,,,0.00,Custom v0.1,2013-08-13 09:35:00,
2013-08-13 04:40:00,66.1,65.5,29.88,West,281,0.0,0.0,98,0.00,,,0.00,Custom v0.1,2013-08-13 09:40:00,
2013-08-13 04:45:00,66.1,65.5,29.88,West,281,0.0,0.0,98,0.00,,,0.00,Custom v0.1,2013-08-13 09:45:00,
2013-08-13 04:50:00,66.3,65.7,29.88,West,281,0.0,0.0,98,0.00,,,0.00,Custom v0.1,2013-08-13 09:50:00,
2013-08-13 04:55:00,66.3,65.7,29.88,West,281,0.0,0.0,98,0.00,,,0.00,Custom v0.1,2013-08-13 09:55:00,
2013-08-13 05:00:00,66.3,65.7,29.88,West,281,0.0,0.0,98,0.00,,,0.00,Custom v0.1,2013-08-13 10:00:00,
2013-08-13 05:05:00,66.1,65.5,29.88,West,281,0.0,0.0,98,0.00,,,0.00,Custom v0.1,2013-08-13 10:05:00,
2013-08-13 05:10:00,66.1,65.5,29.88,West,281,0.0,0.0,98,0.00,,,0.00,Custom v0.1,2013-08-13 10:10:00,
2013-08-13 05:15:00,66.0,65.4,29.88,West,281,0.0,0.0,98,0.00,,,0.00,Custom v0.1,2013-08-13 10:15:00,
2013-08-13 05:20:00,65.8,65.2,29.88,West,281,0.0,0.0,98,0.00,,,0.00,Custom v0.1,2013-08-13 10:20:00,
2013-08-13 05:25:00,65.6,65.0,29.88,West,281,0.0,0.0,98,0.00,,,0.00,Custom v0.1,2013-08-13 10:25:00,
2013-08-13 05:30:00,65.5,64.9,29.88,West,281,0.0,0.0,98,0.00,,,0.00,Custom v0.1,2013-08-13 10:30:00,
2013-08-13 05:35:00,65.5,64.9,29.89,West,281,0.0,0.0,98,0.00,,,0.00,Custom v0.1,2013-08-13 10:35:00,
2013-08-13 05:40:00,65.5,64.9,29.89,West,281,0.0,0.0,98,0.00,,,0.00,Custom v0.1,2013-08-13 10:40:00,
2013-08-13 05:45:00,65.3,64.7,29.89,West,281,0.0,0.0,98,0.00,,,0.00,Custom v0.1,2013-08-13 10:45:00,
2013-08-13 05:50:00,65.2,64.6,29.89,West,281,0.0,0.0,98,0.00,,,0.00,Custom v0.1,2013-08-13 10:50:00,
2013-08-13 05:55:00,65.0,64.4,29.89,West,281,0.0,0.0,98,0.00,,,0.00,Custom v0.1,2013-08-13 10:55:00,
2013-08-13 06:00:00,64.8,64.2,29.89,West,281,0.0,0.0,98,0.00,,,0.00,Custom v0.1,2013-08-13 11:00:00,
2013-08-13 06:05:00,64.8,64.2,29.90,West,281,0.0,0.0,98,0.00,,,0.00,Custom v0.1,2013-08-13 11:05:00,
2013-08-13 06:10:00,64.7,64.1,29.90,West,281,0.0,0.0,98,0.00,,,0.00,Custom v0.1,2013-08-13 11:10:00,
2013-08-13 06:15:00,64.7,64.1,29.90,West,281,0.0,0.0,98,0.00,,,0.00,Custom v0.1,2013-08-13 11:15:00,
2013-08-13 06:20:00,64.5,63.9,29.90,West,281,0.0,0.0,98,0.00,,,0.00,Custom v0.1,2013-08-13 11:20:00,
2013-08-13 06:25:00,64.5,63.9,29.90,West,281,0.0,0.0,98,0.00,,,0.00,Custom v0.1,2013-08-13 11:25:00,
2013-08-13 06:30:00,64.5,63.9,29.90,West,279,0.0,0.0,98,0.00,,,0.00,Custom v0.1,2013-08-13 11:30:00,
2013-08-13 06:35:00,64.5,63.9,29.91,West,281,0.0,0.0,98,0.00,,,0.00,Custom v0.1,2013-08-13 11:35:00,
2013-08-13 06:40:00,64.3,63.7,29.91,West,281,0.0,0.0,98,0.00,,,0.00,Custom v0.1,2013-08-13 11:40:00,
2013-08-13 06:45:00,64.3,63.7,29.91,West,281,0.0,0.0,98,0.00,,,0.00,Custom v0.1,2013-08-13 11:45:00,
2013-08-13 06:50:00,64.2,63.6,29.91,West,281,0.0,0.0,98,0.00,,,0.00,Custom v0.1,2013-08-13 11:50:00,
2013-08-13 06:55:00,64.2,63.6,29.91,West,281,0.0,0.0,98,0.00,,,0.00,Custom v0.1,2013-08-13 11:55:00,
2013-08-13 07:00:00,64.3,63.7,29.91,West,281,0.0,0.0,98,0.00,,,0.00,Custom v0.1,2013-08-13 12:00:00,
2013-08-13 07:05:00,64.3,63.7,29.92,West,281,0.0,0.0,98,0.00,,,0.00,Custom v0.1,2013-08-13 12:05:00,
2013-08-13 07:15:00,64.2,63.6,29.92,West,281,0.0,0.0,98,0.01,,,0.01,Custom v0.1,2013-08-13 12:15:00,
2013-08-13 07:20:00,64.3,63.7,29.93,West,281,0.0,0.0,98,0.01,,,0.01,Custom v0.1,2013-08-13 12:20:00,
2013-08-13 07:25:00,64.3,63.7,29.93,West,281,0.0,0.0,98,0.01,,,0.01,Custom v0.1,2013-08-13 12:25:00,
2013-08-13 07:30:00,64.3,63.7,29.93,West,281,0.0,0.0,98,0.01,,,0.01,Custom v0.1,2013-08-13 12:30:00,
2013-08-13 07:35:00,64.5,63.9,29.92,West,281,0.0,0.0,98,0.01,,,0.01,Custom v0.1,2013-08-13 12:35:00,
2013-08-13 07:40:00,64.5,63.9,29.92,West,281,0.0,0.0,98,0.01,,,0.01,Custom v0.1,2013-08-13 12:40:00,
2013-08-13 07:45:00,64.7,64.1,29.92,West,281,0.0,0.0,98,0.01,,,0.01,Custom v0.1,2013-08-13 12:45:00,
2013-08-13 07:50:00,64.8,64.2,29.93,West,281,0.0,0.0,98,0.01,,,0.01,Custom v0.1,2013-08-13 12:50:00,
2013-08-13 08:00:00,65.2,64.6,29.93,West,281,0.0,0.0,98,0.01,,,0.01,Custom v0.1,2013-08-13 13:00:00,
2013-08-13 08:05:00,65.2,64.6,29.93,West,281,0.0,0.0,98,0.01,,,0.01,Custom v0.1,2013-08-13 13:05:00,
2013-08-13 08:10:00,65.3,64.7,29.93,West,281,0.0,0.0,98,0.01,,,0.01,Custom v0.1,2013-08-13 13:10:00,
2013-08-13 08:15:00,65.3,64.7,29.93,West,281,0.0,0.0,98,0.00,,,0.01,Custom v0.1,2013-08-13 13:15:00,
2013-08-13 08:20:00,65.3,64.7,29.94,West,281,0.0,0.0,98,0.00,,,0.01,Custom v0.1,2013-08-13 13:20:00,
2013-08-13 08:25:00,65.6,65.0,29.94,West,281,0.0,0.0,98,0.00,,,0.01,Custom v0.1,2013-08-13 13:25:00,
2013-08-13 08:30:00,65.8,65.2,29.94,West,281,0.0,0.0,98,0.00,,,0.01,Custom v0.1,2013-08-13 13:30:00,
2013-08-13 08:35:00,65.6,65.0,29.94,West,281,0.0,0.0,98,0.00,,,0.01,Custom v0.1,2013-08-13 13:35:00,
2013-08-13 08:40:00,65.8,65.2,29.94,West,281,0.0,0.0,98,0.00,,,0.01,Custom v0.1,2013-08-13 13:40:00,
2013-08-13 08:45:00,66.0,65.4,29.94,West,281,0.0,0.0,98,0.00,,,0.01,Custom v0.1,2013-08-13 13:45:00,
2013-08-13 08:50:00,66.1,65.2,29.94,West,281,0.0,0.0,97,0.00,,,0.01,Custom v0.1,2013-08-13 13:50:00,
2013-08-13 08:55:00,66.3,65.4,29.94,West,281,0.0,0.0,97,0.00,,,0.01,Custom v0.1,2013-08-13 13:55:00,
2013-08-13 09:05:00,66.6,65.4,29.95,West,281,0.0,0.0,96,0.00,,,0.01,Custom v0.1,2013-08-13 14:05:00,
2013-08-13 09:10:00,66.9,65.4,29.95,West,281,0.0,0.0,95,0.00,,,0.01,Custom v0.1,2013-08-13 14:10:00,
2013-08-13 09:15:00,67.4,65.6,29.95,West,281,0.0,0.0,94,0.00,,,0.01,Custom v0.1,2013-08-13 14:15:00,
2013-08-13 09:20:00,67.8,65.4,29.95,West,281,0.0,0.0,92,0.00,,,0.01,Custom v0.1,2013-08-13 14:20:00,
2013-08-13 09:25:00,68.4,65.3,29.95,WNW,288,0.0,0.0,90,0.00,,,0.01,Custom v0.1,2013-08-13 14:25:00,
2013-08-13 09:30:00,68.9,64.6,29.95,WNW,288,0.0,0.0,86,0.00,,,0.01,Custom v0.1,2013-08-13 14:30:00,
2013-08-13 09:35:00,69.4,64.4,29.95,NW,312,0.0,0.0,84,0.00,,,0.01,Custom v0.1,2013-08-13 14:35:00,
2013-08-13 09:40:00,69.6,63.2,29.95,North,4,0.0,0.0,80,0.00,,,0.01,Custom v0.1,2013-08-13 14:40:00,
2013-08-13 09:45:00,70.1,63.4,29.95,NE,48,0.0,0.0,79,0.00,,,0.01,Custom v0.1,2013-08-13 14:45:00,
2013-08-13 09:50:00,70.4,63.7,29.96,NE,48,0.0,0.0,79,0.00,,,0.01,Custom v0.1,2013-08-13 14:50:00,
2013-08-13 09:55:00,70.8,63.7,29.96,ENE,69,0.0,0.0,78,0.00,,,0.01,Custom v0.1,2013-08-13 14:55:00,
2013-08-13 10:00:00,71.1,63.6,29.96,ENE,69,0.0,0.0,77,0.00,,,0.01,Custom v0.1,2013-08-13 15:00:00,
2013-08-13 10:05:00,71.5,63.3,29.96,ENE,58,0.0,0.0,75,0.00,,,0.01,Custom v0.1,2013-08-13 15:05:00,
2013-08-13 10:10:00,71.8,62.8,29.96,East,93,0.0,0.0,73,0.00,,,0.01,Custom v0.1,2013-08-13 15:10:00,
2013-08-13 10:15:00,72.1,62.4,29.96,ENE,73,0.0,0.0,71,0.00,,,0.01,Custom v0.1,2013-08-13 15:15:00,
2013-08-13 10:20:00,72.5,63.5,29.97,East,86,0.0,0.0,73,0.00,,,0.01,Custom v0.1,2013-08-13 15:20:00,
2013-08-13 10:25:00,72.8,63.0,29.97,ESE,104,0.0,0.0,71,0.00,,,0.01,Custom v0.1,2013-08-13 15:25:00,
2013-08-13 10:30:00,72.8,63.8,29.97,ESE,104,0.0,0.0,73,0.00,,,0.01,Custom v0.1,2013-08-13 15:30:00,
2013-08-13 10:35:00,72.8,63.8,29.98,East,100,0.0,0.0,73,0.00,,,0.01,Custom v0.1,2013-08-13 15:35:00,
2013-08-13 10:40:00,72.8,63.4,29.98,NE,46,0.0,0.0,72,0.00,,,0.01,Custom v0.1,2013-08-13 15:40:00,
2013-08-13 10:45:00,73.0,63.2,29.98,NE,48,0.0,0.0,71,0.00,,,0.01,Custom v0.1,2013-08-13 15:45:00,
2013-08-13 10:50:00,73.5,64.5,29.98,NE,55,0.0,0.0,73,0.00,,,0.01,Custom v0.1,2013-08-13 15:50:00,
2013-08-13 10:55:00,74.0,64.2,29.98,NE,55,0.0,0.0,71,0.00,,,0.01,Custom v0.1,2013-08-13 15:55:00,
2013-08-13 11:00:00,73.9,64.1,29.98,NE,41,1.0,1.0,71,0.00,,,0.01,Custom v0.1,2013-08-13 16:00:00,
2013-08-13 11:05:00,73.5,63.3,29.98,ESE,104,0.0,0.0,70,0.00,,,0.01,Custom v0.1,2013-08-13 16:05:00,
2013-08-13 11:15:00,73.9,63.7,29.98,East,100,0.0,0.0,70,0.00,,,0.01,Custom v0.1,2013-08-13 16:15:00,
2013-08-13 11:20:00,74.0,64.2,29.98,East,92,0.0,0.0,71,0.00,,,0.01,Custom v0.1,2013-08-13 16:20:00,
2013-08-13 11:25:00,74.2,63.6,29.98,East,99,0.0,0.0,69,0.00,,,0.01,Custom v0.1,2013-08-13 16:25:00,
2013-08-13 11:30:00,74.4,64.6,29.98,East,99,0.0,0.0,71,0.00,,,0.01,Custom v0.1,2013-08-13 16:30:00,
2013-08-13 11:35:00,74.6,64.4,29.98,East,84,0.0,0.0,70,0.00,,,0.01,Custom v0.1,2013-08-13 16:35:00,
2013-08-13 11:40:00,74.6,64.0,29.98,ENE,62,0.0,0.0,69,0.00,,,0.01,Custom v0.1,2013-08-13 16:40:00,
2013-08-13 11:45:00,74.4,62.9,29.98,East,79,0.0,0.0,67,0.00,,,0.01,Custom v0.1,2013-08-13 16:45:00,
2013-08-13 11:50:00,74.7,62.8,29.98,NE,56,0.0,0.0,66,0.00,,,0.01,Custom v0.1,2013-08-13 16:50:00,
2013-08-13 11:55:00,75.1,63.6,29.98,NE,56,0.0,0.0,67,0.00,,,0.01,Custom v0.1,2013-08-13 16:55:00,
2013-08-13 12:00:00,75.3,62.5,29.98,ENE,63,0.0,0.0,64,0.00,,,0.01,Custom v0.1,2013-08-13 17:00:00,
2013-08-13 12:05:00,75.3,63.8,29.98,East,90,0.0,0.0,67,0.00,,,0.01,Custom v0.1,2013-08-13 17:05:00,
2013-08-13 12:15:00,75.1,63.2,29.98,East,99,0.0,2.0,66,0.00,,,0.01,Custom v0.1,2013-08-13 17:15:00,
2013-08-13 12:20:00,75.3,63.4,29.98,East,89,0.0,3.0,66,0.00,,,0.01,Custom v0.1,2013-08-13 17:20:00,
2013-08-13 12:25:00,76.0,64.9,29.98,NNW,336,0.0,0.0,68,0.00,,,0.01,Custom v0.1,2013-08-13 17:25:00,
2013-08-13 12:30:00,76.8,63.9,29.98,North,4,0.0,0.0,64,0.00,,,0.01,Custom v0.1,2013-08-13 17:30:00,
2013-08-13 12:35:00,77.4,63.6,29.98,North,4,1.0,1.0,62,0.00,,,0.01,Custom v0.1,2013-08-13 17:35:00,
2013-08-13 12:40:00,77.6,63.8,29.98,NNE,22,1.0,3.0,62,0.00,,,0.01,Custom v0.1,2013-08-13 17:40:00,
2013-08-13 12:45:00,77.6,61.9,29.98,North,3,0.0,0.0,58,0.00,,,0.01,Custom v0.1,2013-08-13 17:45:00,
2013-08-13 12:50:00,77.7,63.4,29.97,NNW,339,0.0,4.0,61,0.00,,,0.01,Custom v0.1,2013-08-13 17:50:00,
2013-08-13 12:55:00,77.6,60.3,29.97,East,99,3.0,4.0,55,0.00,,,0.01,Custom v0.1,2013-08-13 17:55:00,
2013-08-13 13:00:00,77.0,63.2,29.97,East,86,8.0,8.0,62,0.00,,,0.01,Custom v0.1,2013-08-13 18:00:00,
2013-08-13 13:05:00,76.7,63.8,29.97,East,93,7.0,7.0,64,0.00,,,0.01,Custom v0.1,2013-08-13 18:05:00,
2013-08-13 13:10:00,76.8,61.6,29.97,East,83,0.0,0.0,59,0.00,,,0.01,Custom v0.1,2013-08-13 18:10:00,
2013-08-13 13:15:00,77.0,60.8,29.97,SE,130,0.0,1.0,57,0.00,,,0.01,Custom v0.1,2013-08-13 18:15:00,
2013-08-13 13:20:00,77.0,60.8,29.96,East,93,0.0,7.0,57,0.00,,,0.01,Custom v0.1,2013-08-13 18:20:00,
2013-08-13 13:25:00,77.2,60.0,29.96,ESE,107,0.0,3.0,55,0.00,,,0.01,Custom v0.1,2013-08-13 18:25:00,
2013-08-13 13:30:00,77.4,60.1,29.96,NNE,25,0.0,0.0,55,0.00,,,0.01,Custom v0.1,2013-08-13 18:30:00,
2013-08-13 13:35:00,77.9,60.6,29.96,North,10,0.0,0.0,55,0.00,,,0.01,Custom v0.1,2013-08-13 18:35:00,
2013-08-13 13:40:00,77.9,62.6,29.96,NNW,332,0.0,0.0,59,0.00,,,0.01,Custom v0.1,2013-08-13 18:40:00,
2013-08-13 13:45:00,78.1,62.8,29.96,ENE,66,3.0,3.0,59,0.00,,,0.01,Custom v0.1,2013-08-13 18:45:00,
2013-08-13 13:50:00,78.3,63.0,29.96,East,94,0.0,0.0,59,0.00,,,0.01,Custom v0.1,2013-08-13 18:50:00,
2013-08-13 13:55:00,78.3,62.0,29.96,East,100,0.0,1.0,57,0.00,,,0.01,Custom v0.1,2013-08-13 18:55:00,
2013-08-13 14:00:00,78.1,62.8,29.96,North,5,0.0,6.0,59,0.00,,,0.01,Custom v0.1,2013-08-13 19:00:00,
2013-08-13 14:05:00,77.9,60.1,29.96,East,79,11.0,11.0,54,0.00,,,0.01,Custom v0.1,2013-08-13 19:05:00,
2013-08-13 14:10:00,77.0,59.8,29.96,SSE,152,0.0,0.0,55,0.00,,,0.01,Custom v0.1,2013-08-13 19:10:00,
2013-08-13 14:15:00,77.0,59.8,29.96,NE,46,0.0,5.0,55,0.00,,,0.01,Custom v0.1,2013-08-13 19:15:00,
2013-08-13 14:25:00,78.1,60.8,29.96,NE,56,0.0,0.0,55,0.00,,,0.01,Custom v0.1,2013-08-13 19:25:00,
2013-08-13 14:30:00,78.1,61.3,29.96,East,84,3.0,3.0,56,0.00,,,0.01,Custom v0.1,2013-08-13 19:30:00,
2013-08-13 14:35:00,77.9,60.6,29.95,ESE,113,7.0,7.0,55,0.00,,,0.01,Custom v0.1,2013-08-13 19:35:00,
2013-08-13 14:40:00,77.9,61.6,29.95,NNE,22,0.0,1.0,57,0.00,,,0.01,Custom v0.1,2013-08-13 19:40:00,
2013-08-13 14:45:00,78.1,60.8,29.95,SSE,147,0.0,1.0,55,0.00,,,0.01,Custom v0.1,2013-08-13 19:45:00,
2013-08-13 14:50:00,78.3,62.0,29.95,NW,323,0.0,0.0,57,0.00,,,0.01,Custom v0.1,2013-08-13 19:50:00,
2013-08-13 14:55:00,78.5,62.7,29.95,East,86,2.0,2.0,58,0.00,,,0.01,Custom v0.1,2013-08-13 19:55:00,
2013-08-13 15:00:00,78.5,62.7,29.95,SE,140,0.0,0.0,58,0.00,,,0.01,Custom v0.1,2013-08-13 20:00:00,
2013-08-13 15:05:00,78.6,62.8,29.94,ESE,106,0.0,0.0,58,0.00,,,0.01,Custom v0.1,2013-08-13 20:05:00,
2013-08-13 15:11:00,78.1,61.8,29.94,NW,320,5.0,5.0,57,0.00,,,0.01,Custom v0.1,2013-08-13 20:11:00,
2013-08-13 15:20:00,77.9,61.6,29.94,ENE,70,2.0,2.0,57,0.00,,,0.01,Custom v0.1,2013-08-13 20:20:00,
2013-08-13 15:25:00,77.7,62.4,29.94,NNE,28,1.0,1.0,59,0.00,,,0.01,Custom v0.1,2013-08-13 20:25:00,
2013-08-13 15:30:00,78.1,61.8,29.94,ENE,59,3.0,3.0,57,0.00,,,0.01,Custom v0.1,2013-08-13 20:30:00,
2013-08-13 15:35:00,78.3,62.5,29.94,ESE,104,5.0,5.0,58,0.00,,,0.01,Custom v0.1,2013-08-13 20:35:00,
2013-08-13 15:40:00,78.1,59.2,29.94,East,93,0.0,0.0,52,0.00,,,0.01,Custom v0.1,2013-08-13 20:40:00,
2013-08-13 15:45:00,78.1,60.8,29.94,NNE,18,3.0,3.0,55,0.00,,,0.01,Custom v0.1,2013-08-13 20:45:00,
2013-08-13 15:50:00,78.3,60.5,29.94,NE,36,0.0,0.0,54,0.00,,,0.01,Custom v0.1,2013-08-13 20:50:00,
2013-08-13 16:00:00,78.8,62.5,29.94,NNE,29,0.0,0.0,57,0.00,,,0.01,Custom v0.1,2013-08-13 21:00:00,
2013-08-13 16:05:00,79.4,60.9,29.93,NNE,24,0.0,0.0,53,0.00,,,0.01,Custom v0.1,2013-08-13 21:05:00,
2013-08-13 16:10:00,79.0,59.5,29.93,East,79,0.0,0.0,51,0.00,,,0.01,Custom v0.1,2013-08-13 21:10:00,
2013-08-13 16:20:00,78.5,60.1,29.93,East,96,0.0,0.0,53,0.00,,,0.01,Custom v0.1,2013-08-13 21:20:00,
2013-08-13 16:25:00,79.0,62.7,29.93,North,8,0.0,0.0,57,0.00,,,0.01,Custom v0.1,2013-08-13 21:25:00,
2013-08-13 16:30:00,79.2,63.4,29.93,NNE,22,0.0,0.0,58,0.00,,,0.01,Custom v0.1,2013-08-13 21:30:00,
2013-08-13 16:35:00,79.2,62.9,29.93,ENE,62,0.0,0.0,57,0.00,,,0.01,Custom v0.1,2013-08-13 21:35:00,
2013-08-13 16:40:00,79.0,60.6,29.93,East,92,0.0,0.0,53,0.00,,,0.01,Custom v0.1,2013-08-13 21:40:00,
2013-08-13 16:50:00,79.0,61.6,29.92,ESE,113,0.0,0.0,55,0.00,,,0.01,Custom v0.1,2013-08-13 21:50:00,
2013-08-13 16:55:00,79.2,62.3,29.92,NE,46,0.0,0.0,56,0.00,,,0.01,Custom v0.1,2013-08-13 21:55:00,
2013-08-13 17:00:00,79.4,62.0,29.92,NNW,341,0.0,0.0,55,0.00,,,0.01,Custom v0.1,2013-08-13 22:00:00,
2013-08-13 17:10:00,79.8,62.4,29.92,ENE,59,0.0,0.0,55,0.00,,,0.01,Custom v0.1,2013-08-13 22:10:00,
2013-08-13 17:15:00,79.8,62.4,29.92,ENE,59,0.0,0.0,55,0.00,,,0.01,Custom v0.1,2013-08-13 22:15:00,
2013-08-13 17:20:00,79.9,63.5,29.92,WNW,286,0.0,0.0,57,0.00,,,0.01,Custom v0.1,2013-08-13 22:20:00,
2013-08-13 17:25:00,79.6,62.2,29.92,NNE,12,0.0,0.0,55,0.00,,,0.01,Custom v0.1,2013-08-13 22:25:00,
2013-08-13 17:30:00,79.4,62.5,29.92,NNE,27,0.0,0.0,56,0.00,,,0.01,Custom v0.1,2013-08-13 22:30:00,
2013-08-13 17:35:00,79.4,63.0,29.92,NNE,15,0.0,0.0,57,0.00,,,0.01,Custom v0.1,2013-08-13 22:35:00,
2013-08-13 17:40:00,79.6,62.2,29.92,NW,312,0.0,0.0,55,0.00,,,0.01,Custom v0.1,2013-08-13 22:40:00,
2013-08-13 17:45:00,79.0,62.2,29.92,NNE,20,0.0,0.0,56,0.00,,,0.01,Custom v0.1,2013-08-13 22:45:00,
2013-08-13 17:50:00,78.8,61.4,29.92,NNE,20,0.0,0.0,55,0.00,,,0.01,Custom v0.1,2013-08-13 22:50:00,
2013-08-13 17:55:00,78.8,61.4,29.92,NNE,20,0.0,0.0,55,0.00,,,0.01,Custom v0.1,2013-08-13 22:55:00,
2013-08-13 18:00:00,78.8,62.0,29.92,NNE,21,0.0,0.0,56,0.00,,,0.01,Custom v0.1,2013-08-13 23:00:00,
2013-08-13 18:05:00,78.8,63.0,29.92,NNE,21,0.0,0.0,58,0.00,,,0.01,Custom v0.1,2013-08-13 23:05:00,
2013-08-13 18:10:00,78.6,62.3,29.92,NNE,21,0.0,0.0,57,0.00,,,0.01,Custom v0.1,2013-08-13 23:10:00,
2013-08-13 18:15:00,78.6,63.3,29.92,NNE,21,0.0,0.0,59,0.00,,,0.01,Custom v0.1,2013-08-13 23:15:00,
2013-08-13 18:20:00,78.8,64.9,29.92,NNE,21,0.0,0.0,62,0.00,,,0.01,Custom v0.1,2013-08-13 23:20:00,
2013-08-13 18:25:00,78.8,64.4,29.92,NNE,21,0.0,0.0,61,0.00,,,0.01,Custom v0.1,2013-08-13 23:25:00,
2013-08-13 18:35:00,79.0,63.2,29.92,NNE,21,0.0,0.0,58,0.00,,,0.01,Custom v0.1,2013-08-13 23:35:00,
2013-08-13 18:45:00,79.6,65.7,29.92,NNE,21,0.0,0.0,62,0.00,,,0.01,Custom v0.1,2013-08-13 23:45:00,
2013-08-13 18:50:00,79.6,65.2,29.91,NNE,21,0.0,0.0,61,0.00,,,0.01,Custom v0.1,2013-08-13 23:50:00,
2013-08-13 18:55:00,78.8,65.8,29.91,NNE,21,0.0,0.0,64,0.00,,,0.01,Custom v0.1,2013-08-13 23:55:00,
2013-08-13 19:00:00,78.3,65.4,29.91,NNE,21,0.0,0.0,64,0.00,,,0.01,Custom v0.1,2013-08-14 00:00:00,
2013-08-13 19:05:00,77.6,64.2,29.90,NNE,21,0.0,0.0,63,0.00,,,0.01,Custom v0.1,2013-08-14 00:05:00,
2013-08-13 19:10:00,77.2,65.2,29.90,NNE,21,0.0,0.0,66,0.00,,,0.01,Custom v0.1,2013-08-14 00:10:00,
2013-08-13 19:15:00,76.7,66.0,29.90,NNE,21,0.0,0.0,69,0.00,,,0.01,Custom v0.1,2013-08-14 00:15:00,
2013-08-13 19:20:00,76.3,67.2,29.90,NNE,21,0.0,0.0,73,0.00,,,0.01,Custom v0.1,2013-08-14 00:20:00,
2013-08-13 19:25:00,75.4,67.5,29.90,NNE,21,0.0,0.0,76,0.00,,,0.01,Custom v0.1,2013-08-14 00:25:00,
2013-08-13 19:30:00,74.7,67.5,29.90,NNE,21,0.0,0.0,78,0.00,,,0.01,Custom v0.1,2013-08-14 00:30:00,
2013-08-13 19:35:00,74.0,66.8,29.91,NNE,21,0.0,0.0,78,0.00,,,0.01,Custom v0.1,2013-08-14 00:35:00,
2013-08-13 19:40:00,73.7,67.2,29.91,NNE,21,0.0,0.0,80,0.00,,,0.01,Custom v0.1,2013-08-14 00:40:00,
2013-08-13 19:45:00,73.2,67.1,29.91,NNE,21,0.0,0.0,81,0.00,,,0.01,Custom v0.1,2013-08-14 00:45:00,
2013-08-13 19:50:00,72.5,66.8,29.92,NNE,21,0.0,0.0,82,0.00,,,0.01,Custom v0.1,2013-08-14 00:50:00,
2013-08-13 20:00:00,71.3,66.3,29.92,NNE,21,0.0,0.0,84,0.00,,,0.01,Custom v0.1,2013-08-14 01:00:00,
2013-08-13 20:05:00,70.9,66.2,29.92,NNE,21,0.0,0.0,85,0.00,,,0.01,Custom v0.1,2013-08-14 01:05:00,
2013-08-13 20:10:00,70.6,65.9,29.92,NNE,21,0.0,0.0,85,0.00,,,0.01,Custom v0.1,2013-08-14 01:10:00,
2013-08-13 20:15:00,70.3,65.6,29.92,NNE,21,0.0,0.0,85,0.00,,,0.01,Custom v0.1,2013-08-14 01:15:00,
2013-08-13 20:20:00,69.9,65.5,29.92,NNE,21,0.0,0.0,86,0.00,,,0.01,Custom v0.1,2013-08-14 01:20:00,
2013-08-13 20:25:00,69.6,65.6,29.92,NNE,21,0.0,0.0,87,0.00,,,0.01,Custom v0.1,2013-08-14 01:25:00,
2013-08-13 20:30:00,69.3,65.3,29.92,NNE,21,0.0,0.0,87,0.00,,,0.01,Custom v0.1,2013-08-14 01:30:00,
2013-08-13 20:35:00,69.1,65.1,29.92,NNE,21,0.0,0.0,87,0.00,,,0.01,Custom v0.1,2013-08-14 01:35:00,
2013-08-13 20:40:00,68.8,65.1,29.92,NNE,21,0.0,0.0,88,0.00,,,0.01,Custom v0.1,2013-08-14 01:40:00,
2013-08-13 20:45:00,68.4,64.7,29.92,NNE,21,0.0,0.0,88,0.00,,,0.01,Custom v0.1,2013-08-14 01:45:00,
2013-08-13 20:50:00,68.1,64.7,29.92,NNE,21,0.0,0.0,89,0.00,,,0.01,Custom v0.1,2013-08-14 01:50:00,
2013-08-13 20:55:00,67.9,64.8,29.92,NNE,21,0.0,0.0,90,0.00,,,0.01,Custom v0.1,2013-08-14 01:55:00,
2013-08-13 21:00:00,67.6,64.9,29.92,NNE,21,0.0,0.0,91,0.00,,,0.01,Custom v0.1,2013-08-14 02:00:00,
2013-08-13 21:05:00,67.4,64.7,29.93,NNE,21,0.0,0.0,91,0.00,,,0.01,Custom v0.1,2013-08-14 02:05:00,
2013-08-13 21:10:00,67.3,64.9,29.93,NNE,21,0.0,0.0,92,0.00,,,0.01,Custom v0.1,2013-08-14 02:10:00,
2013-08-13 21:15:00,67.1,64.7,29.93,NNE,21,0.0,0.0,92,0.00,,,0.01,Custom v0.1,2013-08-14 02:15:00,
2013-08-13 21:20:00,66.9,64.5,29.93,NNE,21,0.0,0.0,92,0.00,,,0.01,Custom v0.1,2013-08-14 02:20:00,
2013-08-13 21:25:00,66.9,64.8,29.93,NNE,21,0.0,0.0,93,0.00,,,0.01,Custom v0.1,2013-08-14 02:25:00,
2013-08-13 21:30:00,66.9,64.8,29.93,NNE,21,0.0,0.0,93,0.00,,,0.01,Custom v0.1,2013-08-14 02:30:00,
2013-08-13 21:35:00,66.8,65.0,29.94,NNE,21,0.0,0.0,94,0.00,,,0.01,Custom v0.1,2013-08-14 02:35:00,
2013-08-13 21:40:00,66.8,65.0,29.94,NNE,21,0.0,0.0,94,0.00,,,0.01,Custom v0.1,2013-08-14 02:40:00,
2013-08-13 21:50:00,66.6,64.8,29.95,NNE,21,0.0,0.0,94,0.00,,,0.01,Custom v0.1,2013-08-14 02:50:00,
2013-08-13 21:55:00,66.4,64.6,29.95,NNE,21,0.0,0.0,94,0.00,,,0.01,Custom v0.1,2013-08-14 02:55:00,
2013-08-13 22:00:00,66.4,64.6,29.95,NNE,21,0.0,0.0,94,0.00,,,0.01,Custom v0.1,2013-08-14 03:00:00,
2013-08-13 22:05:00,66.4,64.9,29.95,NNE,21,0.0,0.0,95,0.00,,,0.01,Custom v0.1,2013-08-14 03:05:00,
2013-08-13 22:10:00,66.4,64.9,29.95,NNE,21,0.0,0.0,95,0.00,,,0.01,Custom v0.1,2013-08-14 03:10:00,
2013-08-13 22:15:00,66.4,64.9,29.95,NNE,21,0.0,0.0,95,0.00,,,0.01,Custom v0.1,2013-08-14 03:15:00,
2013-08-13 22:20:00,66.4,64.9,29.96,NNE,21,0.0,0.0,95,0.00,,,0.01,Custom v0.1,2013-08-14 03:20:00,
2013-08-13 22:25:00,66.3,64.8,29.96,NNE,21,0.0,0.0,95,0.00,,,0.01,Custom v0.1,2013-08-14 03:25:00,
2013-08-13 22:30:00,66.3,64.8,29.96,NNE,21,0.0,0.0,95,0.00,,,0.01,Custom v0.1,2013-08-14 03:30:00,
2013-08-13 22:35:00,66.3,64.8,29.97,NNE,21,0.0,0.0,95,0.00,,,0.01,Custom v0.1,2013-08-14 03:35:00,
2013-08-13 22:40:00,66.3,64.8,29.97,NNE,21,0.0,0.0,95,0.00,,,0.01,Custom v0.1,2013-08-14 03:40:00,
2013-08-13 22:45:00,66.3,65.1,29.97,NNE,21,0.0,0.0,96,0.00,,,0.01,Custom v0.1,2013-08-14 03:45:00,
2013-08-13 22:50:00,66.3,65.1,29.97,NNE,21,0.0,0.0,96,0.00,,,0.01,Custom v0.1,2013-08-14 03:50:00,
2013-08-13 22:55:00,66.1,64.9,29.97,NNE,21,0.0,0.0,96,0.00,,,0.01,Custom v0.1,2013-08-14 03:55:00,
2013-08-13 23:00:00,66.1,64.9,29.97,NNE,21,0.0,0.0,96,0.00,,,0.01,Custom v0.1,2013-08-14 04:00:00,
2013-08-13 23:05:00,66.1,64.9,29.97,NNE,21,0.0,0.0,96,0.00,,,0.01,Custom v0.1,2013-08-14 04:05:00,
2013-08-13 23:10:00,66.3,65.1,29.97,NNE,21,0.0,0.0,96,0.00,,,0.01,Custom v0.1,2013-08-14 04:10:00,
2013-08-13 23:15:00,66.4,65.2,29.97,NNE,21,0.0,0.0,96,0.00,,,0.01,Custom v0.1,2013-08-14 04:15:00,
2013-08-13 23:20:00,66.4,65.2,29.98,NNE,21,0.0,0.0,96,0.00,,,0.01,Custom v0.1,2013-08-14 04:20:00,
2013-08-13 23:25:00,66.4,65.2,29.98,NNE,21,0.0,0.0,96,0.00,,,0.01,Custom v0.1,2013-08-14 04:25:00,
2013-08-13 23:30:00,66.3,65.1,29.98,NNE,21,0.0,0.0,96,0.00,,,0.01,Custom v0.1,2013-08-14 04:30:00,
2013-08-13 23:35:00,66.1,64.9,29.98,NNE,21,0.0,0.0,96,0.00,,,0.01,Custom v0.1,2013-08-14 04:35:00,
2013-08-13 23:40:00,66.0,64.8,29.98,NNE,21,0.0,0.0,96,0.00,,,0.01,Custom v0.1,2013-08-14 04:40:00,
2013-08-13 23:45:00,66.0,64.8,29.98,NE,36,0.0,0.0,96,0.00,,,0.01,Custom v0.1,2013-08-14 04:45:00,
2013-08-13 23:50:00,66.1,64.6,29.98,ENE,63,0.0,0.0,95,0.00,,,0.01,Custom v0.1,2013-08-14 04:50:00,
2013-08-13 23:55:00,66.4,64.0,29.98,ENE,76,0.0,0.0,92,0.00,,,0.01,Custom v0.1,2013-08-14 04:55:00,